createdAt,value
2022-11-23T00:01:25.724Z,99328.66
2022-11-23T00:03:28.348Z,99329.25
2022-11-23T00:05:31.450Z,99316.06
2022-11-23T00:07:34.162Z,99323.50
2022-11-23T00:09:36.832Z,99307.88
2022-11-23T00:11:39.551Z,99314.31
2022-11-23T00:13:42.457Z,99304.97
2022-11-23T00:15:44.975Z,99313.03
2022-11-23T00:17:48.634Z,99312.44
2022-11-23T00:19:51.129Z,99311.84
2022-11-23T00:21:53.740Z,99305.88
2022-11-23T00:23:56.837Z,99302.88
2022-11-23T00:25:59.385Z,99311.84
2022-11-23T00:28:02.645Z,99308.22
2022-11-23T00:30:05.793Z,99305.28
2022-11-23T00:32:08.532Z,99295.16
2022-11-23T00:34:11.188Z,99301.34
2022-11-23T00:36:15.609Z,99296.66
2022-11-23T00:38:18.351Z,99298.53
2022-11-23T00:40:21.026Z,99292.94
2022-11-23T00:42:23.658Z,99288.25
2022-11-23T00:44:26.258Z,99286.66
2022-11-23T00:46:29.181Z,99279.28
2022-11-23T00:48:32.356Z,99273.69
2022-11-23T00:50:35.147Z,99275.44
2022-11-23T00:52:37.789Z,99269.03
2022-11-23T00:54:40.530Z,99270.44
2022-11-23T00:56:43.152Z,99262.53
2022-11-23T00:58:53.047Z,99258.41
2022-11-23T01:01:10.755Z,99261.09
2022-11-23T01:03:13.918Z,99257.03
2022-11-23T01:05:16.596Z,99242.91
2022-11-23T01:07:19.285Z,99244.47
2022-11-23T01:09:25.293Z,99235.13
2022-11-23T01:11:30.139Z,99234.06
2022-11-23T01:13:32.922Z,99227.66
2022-11-23T01:15:35.598Z,99234.56
2022-11-23T01:17:38.199Z,99224.25
2022-11-23T01:19:40.850Z,99220.66
2022-11-23T01:21:43.911Z,99220.78
2022-11-23T01:23:46.455Z,99211.56
2022-11-23T01:25:51.904Z,99209.13
2022-11-23T01:27:56.966Z,99202.34
2022-11-23T01:29:59.506Z,99194.53
2022-11-23T01:32:02.316Z,99193.81
2022-11-23T01:34:05.194Z,99203.84
2022-11-23T01:36:18.466Z,99198.16
2022-11-23T01:38:21.081Z,99198.16
2022-11-23T01:40:23.710Z,99191.25
2022-11-23T01:42:56.841Z,99193.13
2022-11-23T01:45:37.875Z,99197.56
2022-11-23T01:47:40.460Z,99189.53
2022-11-23T01:49:48.675Z,99189.97
2022-11-23T01:51:54.946Z,99182.28
2022-11-23T01:54:16.718Z,99184.25
2022-11-23T01:56:25.848Z,99184.59
2022-11-23T01:58:32.091Z,99180.78
2022-11-23T02:00:34.706Z,99173.16
2022-11-23T02:02:41.144Z,99167.22
2022-11-23T02:04:48.221Z,99172.59
2022-11-23T02:06:51.363Z,99176.69
2022-11-23T02:08:54.407Z,99179.38
2022-11-23T02:10:58.353Z,99160.13
2022-11-23T02:13:06.950Z,99167.59
2022-11-23T02:15:29.637Z,99169.91
2022-11-23T02:17:34.520Z,99158.38
2022-11-23T02:20:06.415Z,99151.97
2022-11-23T02:22:17.399Z,99155.69
2022-11-23T02:24:45.511Z,99136.69
2022-11-23T02:26:48.332Z,99150.31
2022-11-23T02:28:59.608Z,99136.59
2022-11-23T02:33:23.531Z,99123.41
2022-11-23T02:35:26.286Z,99130.38
2022-11-23T02:37:29.073Z,99129.13
2022-11-23T02:39:37.156Z,99129.13
2022-11-23T02:41:44.249Z,99121.91
2022-11-23T02:43:52.998Z,99120.25
2022-11-23T02:46:02.090Z,99118.97
2022-11-23T02:50:24.999Z,99126.88
2022-11-23T02:52:27.544Z,99122.22
2022-11-23T02:54:30.154Z,99124.09
2022-11-23T02:56:33.120Z,99129.69
2022-11-23T02:58:35.771Z,99108.13
2022-11-23T03:00:38.699Z,99108.25
2022-11-23T03:02:41.631Z,99116.06
2022-11-23T03:04:44.192Z,99105.34
2022-11-23T03:06:46.884Z,99105.34
2022-11-23T03:08:49.562Z,99091.13
2022-11-23T03:10:52.114Z,99084.94
2022-11-23T03:12:56.677Z,99091.72
2022-11-23T03:14:59.320Z,99087.16
2022-11-23T03:17:01.959Z,99079.00
2022-11-23T03:19:04.795Z,99073.38
2022-11-23T03:21:10.588Z,99084.38
2022-11-23T03:23:13.133Z,99089.72
2022-11-23T03:25:15.888Z,99071.41
2022-11-23T03:27:18.895Z,99080.63
2022-11-23T03:29:25.655Z,99073.63
2022-11-23T03:31:28.233Z,99069.91
2022-11-23T03:33:30.863Z,99056.97
2022-11-23T03:35:33.468Z,99058.56
2022-11-23T03:37:36.090Z,99059.97
2022-11-23T03:39:42.896Z,99055.66
2022-11-23T03:41:48.452Z,99055.19
2022-11-23T03:43:51.028Z,99051.59
2022-11-23T03:45:53.649Z,99047.63
2022-11-23T03:47:56.322Z,99022.69
2022-11-23T03:50:00.341Z,99055.19
2022-11-23T03:52:02.982Z,99039.34
2022-11-23T03:54:05.702Z,99037.47
2022-11-23T03:56:09.077Z,99034.56
2022-11-23T03:58:11.789Z,99037.47
2022-11-23T04:00:15.327Z,99044.00
2022-11-23T04:02:17.930Z,99038.16
2022-11-23T04:04:21.301Z,99033.28
2022-11-23T04:06:23.862Z,99018.81
2022-11-23T04:08:26.831Z,99024.66
2022-11-23T04:10:29.397Z,99018.91
2022-11-23T04:12:32.013Z,99026.50
2022-11-23T04:14:34.612Z,99033.47
2022-11-23T04:16:37.230Z,99024.84
2022-11-23T04:18:40.795Z,99029.28
2022-11-23T04:20:43.477Z,99029.28
2022-11-23T04:22:46.090Z,99035.69
2022-11-23T04:24:48.723Z,99026.34
2022-11-23T04:26:51.384Z,99021.56
2022-11-23T04:28:53.975Z,99017.00
2022-11-23T04:30:58.969Z,99007.56
2022-11-23T04:33:01.617Z,99010.81
2022-11-23T04:35:04.612Z,99020.84
2022-11-23T04:37:12.890Z,99014.44
2022-11-23T04:39:15.970Z,99010.91
2022-11-23T04:41:18.764Z,99010.69
2022-11-23T04:43:21.368Z,99014.19
2022-11-23T04:45:24.097Z,99003.13
2022-11-23T04:47:26.938Z,98996.59
2022-11-23T04:49:29.771Z,98991.81
2022-11-23T04:51:32.918Z,98984.09
2022-11-23T04:53:35.646Z,98985.47
2022-11-23T04:55:38.371Z,98982.78
2022-11-23T04:57:41.102Z,98979.66
2022-11-23T04:59:43.772Z,98966.69
2022-11-23T05:01:46.519Z,98965.53
2022-11-23T05:03:49.109Z,98972.50
2022-11-23T05:05:51.800Z,98976.56
2022-11-23T05:07:55.154Z,98962.03
2022-11-23T05:09:57.925Z,98968.28
2022-11-23T05:12:00.688Z,98962.56
2022-11-23T05:14:03.720Z,98956.97
2022-11-23T05:16:07.274Z,98960.00
2022-11-23T05:18:12.002Z,98954.16
2022-11-23T05:20:14.722Z,98951.25
2022-11-23T05:22:17.321Z,98943.19
2022-11-23T05:24:20.046Z,98936.16
2022-11-23T05:26:22.902Z,98940.25
2022-11-23T05:28:41.618Z,98944.81
2022-11-23T05:30:45.043Z,98927.53
2022-11-23T05:32:48.313Z,98921.22
2022-11-23T05:34:51.241Z,98925.28
2022-11-23T05:36:53.884Z,98918.13
2022-11-23T05:38:56.676Z,98907.66
2022-11-23T05:40:59.605Z,98922.69
2022-11-23T05:43:02.655Z,98919.19
2022-11-23T05:45:11.298Z,98905.53
2022-11-23T05:47:15.181Z,98905.78
2022-11-23T05:49:18.521Z,98907.16
2022-11-23T05:51:22.156Z,98891.28
2022-11-23T05:53:25.189Z,98902.13
2022-11-23T05:55:28.655Z,98895.59
2022-11-23T05:57:31.384Z,98879.81
2022-11-23T05:59:34.467Z,98886.97
2022-11-23T06:01:37.356Z,98890.56
2022-11-23T06:03:40.366Z,98881.13
2022-11-23T06:05:43.222Z,98884.59
2022-11-23T06:07:46.073Z,98879.00
2022-11-23T06:09:48.811Z,98887.13
2022-11-23T06:11:51.425Z,98891.19
2022-11-23T06:13:54.035Z,98884.78
2022-11-23T06:15:57.690Z,98880.16
2022-11-23T06:18:04.155Z,98866.22
2022-11-23T06:20:07.383Z,98874.13
2022-11-23T06:22:10.081Z,98877.13
2022-11-23T06:24:12.709Z,98874.13
2022-11-23T06:26:16.320Z,98877.88
2022-11-23T06:28:19.114Z,98871.44
2022-11-23T06:30:21.924Z,98876.31
2022-11-23T06:32:24.569Z,98871.44
2022-11-23T06:34:27.272Z,98878.75
2022-11-23T06:36:30.000Z,98863.78
2022-11-23T06:38:32.589Z,98868.91
2022-11-23T06:40:35.192Z,98865.25
2022-11-23T06:42:39.676Z,98866.84
2022-11-23T06:44:42.721Z,98873.81
2022-11-23T06:46:45.361Z,98863.38
2022-11-23T06:48:48.292Z,98866.06
2022-11-23T06:50:51.299Z,98859.88
2022-11-23T06:52:58.325Z,98873.53
2022-11-23T06:55:01.187Z,98869.53
2022-11-23T06:57:09.595Z,98861.00
2022-11-23T06:59:12.251Z,98870.44
2022-11-23T07:01:14.954Z,98862.38
2022-11-23T07:03:23.576Z,98853.53
2022-11-23T07:05:26.554Z,98857.31
2022-11-23T07:07:29.255Z,98851.94
2022-11-23T07:09:32.132Z,98854.06
2022-11-23T07:11:35.571Z,98856.50
2022-11-23T07:13:38.888Z,98853.03
2022-11-23T07:15:42.646Z,98849.84
2022-11-23T07:17:45.468Z,98846.84
2022-11-23T07:19:48.582Z,98849.25
2022-11-23T07:21:52.299Z,98834.72
2022-11-23T07:23:54.980Z,98841.38
2022-11-23T07:25:57.628Z,98827.72
2022-11-23T07:28:01.643Z,98834.97
2022-11-23T07:30:05.048Z,98831.94
2022-11-23T07:32:08.897Z,98822.78
2022-11-23T07:34:11.610Z,98818.72
2022-11-23T07:36:14.859Z,98816.56
2022-11-23T07:38:18.067Z,98810.16
2022-11-23T07:40:21.105Z,98804.53
2022-11-23T07:42:44.681Z,98800.56
2022-11-23T07:44:46.226Z,98808.34
2022-11-23T07:46:55.774Z,98806.16
2022-11-23T07:49:02.389Z,98801.84
2022-11-23T07:51:05.103Z,98798.91
2022-11-23T07:53:08.802Z,98800.78
2022-11-23T07:55:11.567Z,98786.78
2022-11-23T07:57:15.325Z,98791.13
2022-11-23T07:59:17.908Z,98788.59
2022-11-23T08:01:20.974Z,98779.81
2022-11-23T08:03:28.642Z,98779.31
2022-11-23T08:05:33.470Z,98777.69
2022-11-23T08:07:36.165Z,98768.00
2022-11-23T08:09:39.113Z,98759.38
2022-11-23T08:11:41.871Z,98776.63
2022-11-23T08:13:45.255Z,98767.41
2022-11-23T08:15:53.834Z,98768.50
2022-11-23T08:17:59.113Z,98765.06
2022-11-23T08:20:01.849Z,98740.50
2022-11-23T08:22:06.005Z,98748.78
2022-11-23T08:24:08.802Z,98752.50
2022-11-23T08:26:13.773Z,98755.19
2022-11-23T08:28:16.736Z,98751.94
2022-11-23T08:30:19.454Z,98742.44
2022-11-23T08:32:22.130Z,98747.31
2022-11-23T08:34:24.805Z,98743.00
2022-11-23T08:36:27.402Z,98745.13
2022-11-23T08:38:30.046Z,98738.44
2022-11-23T08:40:33.637Z,98743.31
2022-11-23T08:42:36.299Z,98739.88
2022-11-23T08:44:39.209Z,98738.78
2022-11-23T08:46:42.034Z,98740.09
2022-11-23T08:48:45.322Z,98733.41
2022-11-23T08:50:48.515Z,98726.66
2022-11-23T08:52:58.847Z,98720.63
2022-11-23T08:55:01.855Z,98720.09
2022-11-23T08:57:06.018Z,98712.84
2022-11-23T08:59:09.506Z,98720.91
2022-11-23T09:01:15.031Z,98706.16
2022-11-23T09:03:17.627Z,98720.91
2022-11-23T09:05:20.386Z,98713.09
2022-11-23T09:07:23.108Z,98723.81
2022-11-23T09:09:25.741Z,98712.91
2022-11-23T09:11:28.491Z,98705.41
2022-11-23T09:13:31.733Z,98699.53
2022-11-23T09:15:34.921Z,98703.03
2022-11-23T09:17:37.656Z,98697.13
2022-11-23T09:19:40.279Z,98694.22
2022-11-23T09:21:43.437Z,98700.44
2022-11-23T09:23:46.205Z,98688.94
2022-11-23T09:25:50.287Z,98678.94
2022-11-23T09:27:59.918Z,98688.59
2022-11-23T09:30:02.971Z,98677.63
2022-11-23T09:32:06.789Z,98677.66
2022-11-23T09:34:13.461Z,98667.44
2022-11-23T09:36:16.229Z,98670.66
2022-11-23T09:38:18.856Z,98669.34
2022-11-23T09:40:21.941Z,98663.78
2022-11-23T09:42:36.666Z,98657.91
2022-11-23T09:45:01.397Z,98652.84
2022-11-23T09:47:28.372Z,98655.75
2022-11-23T09:49:43.224Z,98654.47
2022-11-23T09:51:47.272Z,98644.00
2022-11-23T09:53:53.155Z,98641.88
2022-11-23T09:55:58.048Z,98645.69
2022-11-23T09:58:05.317Z,98642.72
2022-11-23T10:03:19.117Z,98646.88
2022-11-23T10:05:26.343Z,98636.41
2022-11-23T10:07:42.464Z,98639.13
2022-11-23T10:10:01.356Z,98642.16
2022-11-23T10:12:31.897Z,98630.41
2022-11-23T10:14:59.753Z,98631.78
2022-11-23T10:17:26.043Z,98631.28
2022-11-23T10:19:53.263Z,98624.00
2022-11-23T10:22:16.737Z,98621.38
2022-11-23T10:24:31.532Z,98613.00
2022-11-23T10:26:41.739Z,98593.63
2022-11-23T10:28:46.921Z,98606.59
2022-11-23T10:30:57.574Z,98605.50
2022-11-23T10:33:21.936Z,98597.66
2022-11-23T10:35:32.378Z,98606.28
2022-11-23T10:37:35.347Z,98604.16
2022-11-23T10:39:38.449Z,98602.28
2022-11-23T10:41:41.019Z,98596.06
2022-11-23T10:44:09.417Z,98592.84
2022-11-23T10:46:25.955Z,98583.75
2022-11-23T10:48:35.999Z,98591.25
2022-11-23T10:50:44.941Z,98591.72
2022-11-23T10:53:00.626Z,98595.81
2022-11-23T10:55:06.932Z,98590.47
2022-11-23T10:57:27.920Z,98597.44
2022-11-23T10:59:35.756Z,98600.91
2022-11-23T11:01:38.461Z,98604.16
2022-11-23T11:03:41.623Z,98606.28
2022-11-23T11:06:08.541Z,98614.13
2022-11-23T11:08:18.248Z,98598.53
2022-11-23T11:10:37.211Z,98604.47
2022-11-23T11:12:51.502Z,98606.88
2022-11-23T11:15:05.246Z,98603.41
2022-11-23T11:17:26.865Z,98606.69
2022-11-23T11:19:36.392Z,98608.00
2022-11-23T11:21:42.241Z,98597.56
2022-11-23T11:23:52.805Z,98596.22
2022-11-23T11:26:21.550Z,98598.94
2022-11-23T11:28:43.719Z,98591.44
2022-11-23T11:31:11.498Z,98597.63
2022-11-23T11:33:37.443Z,98593.88
2022-11-23T11:35:43.800Z,98590.38
2022-11-23T11:37:52.019Z,98593.88
2022-11-23T11:40:07.975Z,98585.03
2022-11-23T11:42:20.129Z,98594.47
2022-11-23T11:44:26.332Z,98593.38
2022-11-23T11:46:38.393Z,98585.06
2022-11-23T11:48:50.713Z,98582.38
2022-11-23T11:50:59.441Z,98579.47
2022-11-23T11:53:11.935Z,98585.66
2022-11-23T11:55:25.065Z,98574.06
2022-11-23T11:57:44.488Z,98585.91
2022-11-23T11:59:57.891Z,98576.75
2022-11-23T12:02:27.166Z,98582.66
2022-11-23T12:04:39.657Z,98577.28
2022-11-23T12:06:52.114Z,98579.47
2022-11-23T12:09:07.296Z,98584.56
2022-11-23T12:11:12.302Z,98565.44
2022-11-23T12:13:24.895Z,98581.63
2022-11-23T12:16:12.451Z,98568.47
2022-11-23T12:18:40.418Z,98567.13
2022-11-23T12:21:05.457Z,98564.44
2022-11-23T12:23:17.276Z,98566.59
2022-11-23T12:26:02.837Z,98561.75
2022-11-23T12:28:11.441Z,98558.25
2022-11-23T12:30:37.104Z,98554.19
2022-11-23T12:33:05.461Z,98558.81
2022-11-23T12:35:45.558Z,98545.84
2022-11-23T12:38:24.214Z,98553.13
2022-11-23T12:40:46.568Z,98553.94
2022-11-23T12:42:58.686Z,98553.13
2022-11-23T12:45:01.269Z,98552.34
2022-11-23T12:47:18.296Z,98548.84
2022-11-23T12:49:42.244Z,98545.63
2022-11-23T12:52:18.076Z,98543.75
2022-11-23T12:54:23.616Z,98535.13
2022-11-23T12:56:29.313Z,98539.44
2022-11-23T12:58:34.781Z,98534.34
2022-11-23T13:00:44.356Z,98535.13
2022-11-23T13:03:01.940Z,98530.84
2022-11-23T13:05:33.534Z,98521.41
2022-11-23T13:08:02.485Z,98521.41
2022-11-23T13:10:25.809Z,98521.97
2022-11-23T13:13:09.838Z,98520.88
2022-11-23T13:15:44.291Z,98510.66
2022-11-23T13:18:03.805Z,98516.28
2022-11-23T13:20:18.010Z,98524.13
2022-11-23T13:22:23.144Z,98516.28
2022-11-23T13:24:39.019Z,98516.03
2022-11-23T13:26:41.955Z,98525.72
2022-11-23T13:28:47.192Z,98526.81
2022-11-23T13:31:16.175Z,98513.88
2022-11-23T13:33:23.809Z,98517.94
2022-11-23T13:35:29.773Z,98520.38
2022-11-23T13:37:58.326Z,98511.75
2022-11-23T13:40:03.901Z,98512.53
2022-11-23T13:42:11.118Z,98511.19
2022-11-23T13:44:23.364Z,98516.03
2022-11-23T13:46:29.160Z,98504.47
2022-11-23T13:48:55.378Z,98503.91
2022-11-23T13:50:54.530Z,98508.75
2022-11-23T13:52:57.706Z,98502.03
2022-11-23T13:55:12.587Z,98493.44
2022-11-23T13:57:17.022Z,98493.13
2022-11-23T13:59:25.502Z,98491.53
2022-11-23T14:02:06.087Z,98481.56
2022-11-23T14:04:23.775Z,98486.94
2022-11-23T14:06:38.416Z,98479.94
2022-11-23T14:08:42.196Z,98473.47
2022-11-23T14:10:45.409Z,98464.03
2022-11-23T14:12:48.005Z,98460.53
2022-11-23T14:14:59.253Z,98466.75
2022-11-23T14:17:29.073Z,98460.00
2022-11-23T14:19:40.894Z,98455.41
2022-11-23T14:22:06.281Z,98445.72
2022-11-23T14:24:17.755Z,98447.63
2022-11-23T14:26:35.619Z,98450.03
2022-11-23T14:29:15.127Z,98437.91
2022-11-23T14:31:55.228Z,98448.16
2022-11-23T14:34:28.580Z,98441.13
2022-11-23T14:36:39.975Z,98449.50
2022-11-23T14:39:27.122Z,98445.47
2022-11-23T14:41:36.405Z,98443.56
2022-11-23T14:43:43.175Z,98444.13
2022-11-23T14:45:47.585Z,98441.69
2022-11-23T14:47:50.364Z,98438.19
2022-11-23T14:49:53.189Z,98435.19
2022-11-23T14:51:56.601Z,98435.75
2022-11-23T14:54:08.531Z,98442.50
2022-11-23T14:56:22.861Z,98440.88
2022-11-23T14:58:28.766Z,98440.06
2022-11-23T15:00:41.779Z,98438.97
2022-11-23T15:02:44.926Z,98443.03
2022-11-23T15:05:11.760Z,98441.66
2022-11-23T15:07:25.309Z,98440.59
2022-11-23T15:09:46.293Z,98438.72
2022-11-23T15:11:49.413Z,98446.53
2022-11-23T15:13:55.432Z,98437.38
2022-11-23T15:15:58.761Z,98439.00
2022-11-23T15:18:02.964Z,98439.81
2022-11-23T15:20:06.030Z,98438.44
2022-11-23T15:22:20.194Z,98446.78
2022-11-23T15:24:26.209Z,98441.69
2022-11-23T15:28:54.014Z,98434.94
2022-11-23T15:30:58.485Z,98447.88
2022-11-23T15:33:09.233Z,98442.47
2022-11-23T15:35:15.892Z,98429.56
2022-11-23T15:37:19.226Z,98434.69
2022-11-23T15:39:24.272Z,98426.31
2022-11-23T15:41:29.819Z,98429.78
2022-11-23T15:43:32.451Z,98432.78
2022-11-23T15:45:47.018Z,98426.84
2022-11-23T15:47:49.732Z,98417.97
2022-11-23T15:49:59.530Z,98424.41
2022-11-23T15:52:02.914Z,98419.00
2022-11-23T15:54:12.205Z,98416.31
2022-11-23T15:56:28.628Z,98415.25
2022-11-23T15:58:33.061Z,98424.41
2022-11-23T16:00:36.659Z,98417.41
2022-11-23T16:02:39.412Z,98415.28
2022-11-23T16:04:44.214Z,98411.47
2022-11-23T16:06:49.655Z,98407.97
2022-11-23T16:08:52.521Z,98403.66
2022-11-23T16:10:55.763Z,98402.84
2022-11-23T16:13:00.767Z,98394.75
2022-11-23T16:15:44.585Z,98395.59
2022-11-23T16:17:47.279Z,98399.63
2022-11-23T16:20:02.696Z,98397.19
2022-11-23T16:22:07.919Z,98400.16
2022-11-23T16:24:20.632Z,98402.59
2022-11-23T16:26:32.088Z,98399.63
2022-11-23T16:28:38.337Z,98399.09
2022-11-23T16:30:43.669Z,98398.81
2022-11-23T16:32:46.375Z,98397.19
2022-11-23T16:34:49.034Z,98403.94
2022-11-23T16:36:53.282Z,98399.34
2022-11-23T16:38:59.624Z,98397.19
2022-11-23T16:41:05.198Z,98393.16
2022-11-23T16:43:09.328Z,98399.06
2022-11-23T16:45:12.035Z,98400.16
2022-11-23T16:47:22.473Z,98396.66
2022-11-23T16:49:25.156Z,98413.13
2022-11-23T16:51:28.621Z,98398.81
2022-11-23T16:53:47.162Z,98401.25
2022-11-23T16:55:56.000Z,98406.88
2022-11-23T16:57:58.621Z,98400.97
2022-11-23T17:00:07.558Z,98399.63
2022-11-23T17:02:14.749Z,98396.66
2022-11-23T17:04:17.502Z,98399.31
2022-11-23T17:06:23.573Z,98401.25
2022-11-23T17:08:26.254Z,98400.44
2022-11-23T17:10:28.939Z,98394.25
2022-11-23T17:12:31.605Z,98400.16
2022-11-23T17:14:39.252Z,98394.78
2022-11-23T17:16:42.628Z,98398.81
2022-11-23T17:18:45.644Z,98398.53
2022-11-23T17:20:48.664Z,98400.44
2022-11-23T17:22:52.145Z,98393.16
2022-11-23T17:24:54.983Z,98406.88
2022-11-23T17:26:57.766Z,98404.19
2022-11-23T17:29:02.478Z,98404.72
2022-11-23T17:31:05.404Z,98402.56
2022-11-23T17:33:11.477Z,98410.94
2022-11-23T17:35:14.346Z,98406.88
2022-11-23T17:37:22.701Z,98403.41
2022-11-23T17:39:26.268Z,98403.94
2022-11-23T17:41:28.940Z,98402.31
2022-11-23T17:43:31.703Z,98405.31
2022-11-23T17:45:34.603Z,98400.72
2022-11-23T17:47:38.427Z,98403.41
2022-11-23T17:49:41.039Z,98395.59
2022-11-23T17:51:43.943Z,98389.13
2022-11-23T17:53:47.897Z,98386.13
2022-11-23T17:55:50.897Z,98389.13
2022-11-23T17:57:54.148Z,98392.88
2022-11-23T18:00:01.993Z,98386.16
2022-11-23T18:02:07.255Z,98386.69
2022-11-23T18:04:10.299Z,98393.72
2022-11-23T18:06:20.134Z,98392.88
2022-11-23T18:08:22.905Z,98389.13
2022-11-23T18:10:25.865Z,98382.38
2022-11-23T18:12:28.469Z,98381.59
2022-11-23T18:14:31.076Z,98387.78
2022-11-23T18:16:33.737Z,98391.00
2022-11-23T18:18:37.227Z,98384.78
2022-11-23T18:20:39.956Z,98385.59
2022-11-23T18:22:42.820Z,98386.66
2022-11-23T18:24:45.369Z,98386.13
2022-11-23T18:26:52.260Z,98383.72
2022-11-23T18:28:59.787Z,98384.50
2022-11-23T18:31:13.950Z,98384.81
2022-11-23T18:33:20.093Z,98376.19
2022-11-23T18:35:22.868Z,98377.78
2022-11-23T18:37:25.630Z,98376.16
2022-11-23T18:39:28.267Z,98384.25
2022-11-23T18:41:30.868Z,98382.63
2022-11-23T18:43:33.856Z,98379.13
2022-11-23T18:45:36.545Z,98379.13
2022-11-23T18:47:39.191Z,98369.97
2022-11-23T18:49:41.848Z,98380.19
2022-11-23T18:51:44.483Z,98375.91
2022-11-23T18:53:50.012Z,98375.06
2022-11-23T18:55:57.538Z,98379.41
2022-11-23T18:58:02.900Z,98376.41
2022-11-23T19:00:08.039Z,98383.44
2022-11-23T19:02:11.756Z,98377.25
2022-11-23T19:04:14.384Z,98374.78
2022-11-23T19:06:19.104Z,98375.31
2022-11-23T19:08:21.989Z,98378.03
2022-11-23T19:10:24.593Z,98376.13
2022-11-23T19:12:27.193Z,98372.63
2022-11-23T19:14:29.844Z,98362.66
2022-11-23T19:16:32.982Z,98375.31
2022-11-23T19:18:35.526Z,98377.75
2022-11-23T19:20:38.687Z,98382.31
2022-11-23T19:22:49.053Z,98353.53
2022-11-23T19:24:51.766Z,98377.78
2022-11-23T19:26:54.880Z,98374.53
2022-11-23T19:28:58.829Z,98369.69
2022-11-23T19:31:11.953Z,98367.25
2022-11-23T19:33:15.827Z,98375.34
2022-11-23T19:35:18.582Z,98377.78
2022-11-23T19:37:21.146Z,98375.88
2022-11-23T19:39:24.176Z,98367.25
2022-11-23T19:41:30.767Z,98370.22
2022-11-23T19:43:33.574Z,98375.59
2022-11-23T19:45:36.148Z,98379.63
2022-11-23T19:47:38.777Z,98370.75
2022-11-23T19:49:41.352Z,98378.56
2022-11-23T19:51:45.372Z,98372.88
2022-11-23T19:53:49.433Z,98378.56
2022-11-23T19:55:52.233Z,98373.19
2022-11-23T19:57:54.926Z,98375.88
2022-11-23T19:59:57.440Z,98377.78
2022-11-23T20:02:00.022Z,98374.78
2022-11-23T20:04:09.586Z,98373.19
2022-11-23T20:06:26.183Z,98376.41
2022-11-23T20:08:29.050Z,98371.81
2022-11-23T20:10:31.599Z,98365.91
2022-11-23T20:12:34.159Z,98371.56
2022-11-23T20:14:36.741Z,98361.06
2022-11-23T20:16:39.781Z,98365.91
2022-11-23T20:18:43.688Z,98360.50
2022-11-23T20:20:47.868Z,98368.31
2022-11-23T20:22:50.641Z,98363.19
2022-11-23T20:24:53.266Z,98369.94
2022-11-23T20:26:55.801Z,98363.75
2022-11-23T20:28:59.181Z,98364.28
2022-11-23T20:31:15.646Z,98368.84
2022-11-23T20:33:21.156Z,98367.50
2022-11-23T20:35:24.095Z,98372.88
2022-11-23T20:37:26.959Z,98363.75
2022-11-23T20:39:29.600Z,98367.22
2022-11-23T20:41:34.625Z,98367.78
2022-11-23T20:43:37.946Z,98366.13
2022-11-23T20:45:40.704Z,98364.28
2022-11-23T20:47:43.388Z,98365.34
2022-11-23T20:49:46.045Z,98366.44
2022-11-23T20:51:48.795Z,98363.44
2022-11-23T20:53:52.228Z,98361.84
2022-11-23T20:56:01.588Z,98359.41
2022-11-23T20:58:04.344Z,98374.78
2022-11-23T21:00:07.609Z,98369.38
2022-11-23T21:02:10.401Z,98362.41
2022-11-23T21:04:13.093Z,98369.13
2022-11-23T21:06:15.697Z,98376.41
2022-11-23T21:08:27.894Z,98373.19
2022-11-23T21:10:51.539Z,98368.31
2022-11-23T21:13:12.488Z,98379.38
2022-11-23T21:15:15.674Z,98375.88
2022-11-23T21:17:18.287Z,98374.25
2022-11-23T21:19:23.656Z,98376.69
2022-11-23T21:21:26.782Z,98376.69
2022-11-23T21:23:36.340Z,98384.50
2022-11-23T21:25:39.081Z,98369.13
2022-11-23T21:27:41.668Z,98372.66
2022-11-23T21:29:44.994Z,98382.88
2022-11-23T21:31:49.004Z,98379.94
2022-11-23T21:33:54.030Z,98386.94
2022-11-23T21:36:02.104Z,98390.44
2022-11-23T21:38:04.833Z,98385.31
2022-11-23T21:40:08.209Z,98383.16
2022-11-23T21:42:10.953Z,98390.72
2022-11-23T21:44:13.789Z,98397.72
2022-11-23T21:46:16.927Z,98400.94
2022-11-23T21:48:19.568Z,98393.13
2022-11-23T21:50:22.206Z,98399.59
2022-11-23T21:52:24.900Z,98389.88
2022-11-23T21:54:27.496Z,98390.97
2022-11-23T21:56:30.577Z,98386.94
2022-11-23T21:58:33.296Z,98393.94
2022-11-23T22:00:35.942Z,98399.03
2022-11-23T22:02:39.036Z,98401.50
2022-11-23T22:04:41.861Z,98401.22
2022-11-23T22:06:45.654Z,98404.72
2022-11-23T22:08:54.253Z,98397.47
2022-11-23T22:10:57.039Z,98404.19
2022-11-23T22:12:59.721Z,98399.88
2022-11-23T22:15:02.682Z,98391.78
2022-11-23T22:17:06.074Z,98395.59
2022-11-23T22:19:12.171Z,98400.41
2022-11-23T22:21:16.057Z,98402.56
2022-11-23T22:23:18.700Z,98394.25
2022-11-23T22:25:21.436Z,98403.13
2022-11-23T22:27:27.800Z,98402.56
2022-11-23T22:29:30.695Z,98401.25
2022-11-23T22:31:34.928Z,98405.81
2022-11-23T22:33:38.437Z,98407.72
2022-11-23T22:35:41.028Z,98413.38
2022-11-23T22:37:43.600Z,98409.88
2022-11-23T22:39:46.273Z,98410.94
2022-11-23T22:41:48.888Z,98410.41
2022-11-23T22:43:52.304Z,98406.91
2022-11-23T22:45:57.733Z,98417.69
2022-11-23T22:48:03.818Z,98421.19
2022-11-23T22:50:09.629Z,98412.56
2022-11-23T22:52:12.931Z,98411.22
2022-11-23T22:54:15.557Z,98417.44
2022-11-23T22:56:19.940Z,98424.44
2022-11-23T22:58:22.672Z,98409.34
2022-11-23T23:00:25.399Z,98419.03
2022-11-23T23:02:29.294Z,98419.84
2022-11-23T23:04:32.409Z,98422.53
2022-11-23T23:06:36.095Z,98430.88
2022-11-23T23:08:38.767Z,98427.13
2022-11-23T23:10:41.499Z,98424.69
2022-11-23T23:12:44.177Z,98432.78
2022-11-23T23:14:46.927Z,98432.25
2022-11-23T23:16:49.879Z,98433.88
2022-11-23T23:18:55.405Z,98440.88
2022-11-23T23:21:11.022Z,98435.50
2022-11-23T23:23:14.160Z,98439.78
2022-11-23T23:25:16.933Z,98438.97
2022-11-23T23:27:19.646Z,98440.34
2022-11-23T23:29:22.991Z,98441.41
2022-11-23T23:31:27.262Z,98444.38
2022-11-23T23:33:32.473Z,98438.44
2022-11-23T23:35:36.131Z,98447.34
2022-11-23T23:37:38.765Z,98448.41
2022-11-23T23:39:41.410Z,98443.28
2022-11-23T23:41:44.180Z,98456.50
2022-11-23T23:43:48.421Z,98449.50
2022-11-23T23:45:51.638Z,98454.34
2022-11-23T23:47:54.607Z,98461.88
2022-11-23T23:49:57.339Z,98459.47
2022-11-23T23:52:00.062Z,98464.88
2022-11-23T23:54:02.793Z,98462.69
2022-11-23T23:56:08.068Z,98463.25
2022-11-23T23:58:10.793Z,98464.84
